sensor_id;sensor_type;location;lat;lon;timestamp;P1;durP1;ratioP1;P2;durP2;ratioP2
15567;SDS011;7885;42.596;23.044;2022-11-18T00:02:13;574.77;;;55.00;;
15567;SDS011;7885;42.596;23.044;2022-11-18T00:04:40;608.60;;;43.03;;
15567;SDS011;7885;42.596;23.044;2022-11-18T00:07:07;769.63;;;55.27;;
15567;SDS011;7885;42.596;23.044;2022-11-18T00:09:33;632.97;;;48.60;;
15567;SDS011;7885;42.596;23.044;2022-11-18T00:12:00;557.80;;;50.63;;
15567;SDS011;7885;42.596;23.044;2022-11-18T00:14:46;500.30;;;58.63;;
15567;SDS011;7885;42.596;23.044;2022-11-18T00:17:13;76.13;;;42.73;;
15567;SDS011;7885;42.596;23.044;2022-11-18T00:19:40;205.40;;;39.80;;
15567;SDS011;7885;42.596;23.044;2022-11-18T00:22:07;150.23;;;39.50;;
15567;SDS011;7885;42.596;23.044;2022-11-18T00:24:37;43.63;;;29.90;;
15567;SDS011;7885;42.596;23.044;2022-11-18T00:27:04;70.50;;;33.30;;
15567;SDS011;7885;42.596;23.044;2022-11-18T00:29:31;134.67;;;37.40;;
15567;SDS011;7885;42.596;23.044;2022-11-18T00:31:59;182.30;;;41.33;;
15567;SDS011;7885;42.596;23.044;2022-11-18T00:34:26;217.20;;;39.83;;
15567;SDS011;7885;42.596;23.044;2022-11-18T00:36:52;297.73;;;38.83;;
15567;SDS011;7885;42.596;23.044;2022-11-18T00:39:19;127.00;;;31.30;;
15567;SDS011;7885;42.596;23.044;2022-11-18T00:41:46;194.40;;;31.10;;
15567;SDS011;7885;42.596;23.044;2022-11-18T00:44:31;140.30;;;26.83;;
15567;SDS011;7885;42.596;23.044;2022-11-18T00:47:00;160.37;;;32.47;;
15567;SDS011;7885;42.596;23.044;2022-11-18T00:49:27;189.10;;;34.73;;
15567;SDS011;7885;42.596;23.044;2022-11-18T00:51:54;166.60;;;40.40;;
15567;SDS011;7885;42.596;23.044;2022-11-18T00:54:20;143.67;;;32.30;;
15567;SDS011;7885;42.596;23.044;2022-11-18T00:56:47;177.57;;;36.13;;
15567;SDS011;7885;42.596;23.044;2022-11-18T00:59:14;138.07;;;28.27;;
15567;SDS011;7885;42.596;23.044;2022-11-18T01:01:41;177.30;;;30.60;;
15567;SDS011;7885;42.596;23.044;2022-11-18T01:04:09;169.17;;;31.90;;
15567;SDS011;7885;42.596;23.044;2022-11-18T01:06:36;137.23;;;28.20;;
15567;SDS011;7885;42.596;23.044;2022-11-18T01:09:03;117.33;;;27.73;;
15567;SDS011;7885;42.596;23.044;2022-11-18T01:11:29;97.90;;;24.90;;
15567;SDS011;7885;42.596;23.044;2022-11-18T01:14:14;86.90;;;23.23;;
15567;SDS011;7885;42.596;23.044;2022-11-18T01:16:40;65.73;;;14.43;;
15567;SDS011;7885;42.596;23.044;2022-11-18T01:19:07;47.30;;;14.97;;
15567;SDS011;7885;42.596;23.044;2022-11-18T01:21:35;49.83;;;17.13;;
15567;SDS011;7885;42.596;23.044;2022-11-18T01:24:02;46.27;;;13.80;;
15567;SDS011;7885;42.596;23.044;2022-11-18T01:26:29;91.97;;;17.47;;
15567;SDS011;7885;42.596;23.044;2022-11-18T01:28:56;118.87;;;13.20;;
15567;SDS011;7885;42.596;23.044;2022-11-18T01:31:23;56.83;;;10.67;;
15567;SDS011;7885;42.596;23.044;2022-11-18T01:33:50;56.00;;;11.30;;
15567;SDS011;7885;42.596;23.044;2022-11-18T01:36:18;60.80;;;11.00;;
15567;SDS011;7885;42.596;23.044;2022-11-18T01:38:49;74.77;;;12.00;;
15567;SDS011;7885;42.596;23.044;2022-11-18T01:41:16;68.07;;;10.70;;
15567;SDS011;7885;42.596;23.044;2022-11-18T01:43:48;64.93;;;10.50;;
15567;SDS011;7885;42.596;23.044;2022-11-18T01:46:19;69.37;;;10.13;;
15567;SDS011;7885;42.596;23.044;2022-11-18T01:48:47;45.90;;;9.63;;
15567;SDS011;7885;42.596;23.044;2022-11-18T01:51:18;54.80;;;9.77;;
15567;SDS011;7885;42.596;23.044;2022-11-18T01:53:50;51.57;;;9.57;;
15567;SDS011;7885;42.596;23.044;2022-11-18T01:56:25;36.10;;;9.30;;
15567;SDS011;7885;42.596;23.044;2022-11-18T01:58:55;114.10;;;10.63;;
15567;SDS011;7885;42.596;23.044;2022-11-18T02:01:25;63.10;;;10.10;;
15567;SDS011;7885;42.596;23.044;2022-11-18T02:03:51;15.23;;;7.53;;
15567;SDS011;7885;42.596;23.044;2022-11-18T02:06:19;32.73;;;8.70;;
15567;SDS011;7885;42.596;23.044;2022-11-18T02:08:46;33.17;;;9.03;;
15567;SDS011;7885;42.596;23.044;2022-11-18T02:11:16;24.20;;;7.50;;
15567;SDS011;7885;42.596;23.044;2022-11-18T02:14:01;24.97;;;8.53;;
15567;SDS011;7885;42.596;23.044;2022-11-18T02:16:32;30.50;;;8.20;;
15567;SDS011;7885;42.596;23.044;2022-11-18T02:19:14;91.70;;;11.27;;
15567;SDS011;7885;42.596;23.044;2022-11-18T02:21:56;20.07;;;8.97;;
15567;SDS011;7885;42.596;23.044;2022-11-18T02:24:39;14.03;;;8.57;;
15567;SDS011;7885;42.596;23.044;2022-11-18T02:30:13;31.17;;;8.03;;
15567;SDS011;7885;42.596;23.044;2022-11-18T02:32:42;286.87;;;13.83;;
15567;SDS011;7885;42.596;23.044;2022-11-18T02:35:14;104.73;;;10.33;;
15567;SDS011;7885;42.596;23.044;2022-11-18T02:37:48;31.23;;;9.73;;
15567;SDS011;7885;42.596;23.044;2022-11-18T02:40:21;103.67;;;12.30;;
15567;SDS011;7885;42.596;23.044;2022-11-18T02:42:52;69.73;;;10.90;;
15567;SDS011;7885;42.596;23.044;2022-11-18T02:45:26;37.80;;;11.37;;
15567;SDS011;7885;42.596;23.044;2022-11-18T02:48:01;301.43;;;15.00;;
15567;SDS011;7885;42.596;23.044;2022-11-18T02:50:33;241.50;;;13.90;;
15567;SDS011;7885;42.596;23.044;2022-11-18T02:53:02;50.87;;;12.60;;
15567;SDS011;7885;42.596;23.044;2022-11-18T02:55:31;206.40;;;13.67;;
15567;SDS011;7885;42.596;23.044;2022-11-18T02:58:00;139.07;;;14.50;;
15567;SDS011;7885;42.596;23.044;2022-11-18T03:00:30;275.23;;;17.43;;
15567;SDS011;7885;42.596;23.044;2022-11-18T03:02:57;140.30;;;15.97;;
15567;SDS011;7885;42.596;23.044;2022-11-18T03:05:26;168.07;;;18.20;;
15567;SDS011;7885;42.596;23.044;2022-11-18T03:07:59;190.67;;;17.67;;
15567;SDS011;7885;42.596;23.044;2022-11-18T03:10:34;105.33;;;16.40;;
15567;SDS011;7885;42.596;23.044;2022-11-18T03:13:12;175.00;;;16.90;;
15567;SDS011;7885;42.596;23.044;2022-11-18T03:15:47;310.00;;;14.83;;
15567;SDS011;7885;42.596;23.044;2022-11-18T03:18:21;96.73;;;10.87;;
15567;SDS011;7885;42.596;23.044;2022-11-18T03:20:54;53.27;;;8.87;;
15567;SDS011;7885;42.596;23.044;2022-11-18T03:23:29;23.70;;;6.90;;
15567;SDS011;7885;42.596;23.044;2022-11-18T03:26:00;55.73;;;6.83;;
15567;SDS011;7885;42.596;23.044;2022-11-18T03:28:31;45.97;;;6.83;;
15567;SDS011;7885;42.596;23.044;2022-11-18T03:31:05;54.50;;;8.00;;
15567;SDS011;7885;42.596;23.044;2022-11-18T03:33:38;45.93;;;8.40;;
15567;SDS011;7885;42.596;23.044;2022-11-18T03:36:09;28.07;;;6.40;;
15567;SDS011;7885;42.596;23.044;2022-11-18T03:38:39;43.33;;;6.07;;
15567;SDS011;7885;42.596;23.044;2022-11-18T03:41:12;67.87;;;8.30;;
15567;SDS011;7885;42.596;23.044;2022-11-18T03:43:43;57.50;;;8.43;;
15567;SDS011;7885;42.596;23.044;2022-11-18T03:46:15;52.63;;;8.53;;
15567;SDS011;7885;42.596;23.044;2022-11-18T03:48:46;74.03;;;8.00;;
15567;SDS011;7885;42.596;23.044;2022-11-18T03:51:17;149.00;;;9.13;;
15567;SDS011;7885;42.596;23.044;2022-11-18T03:53:49;31.20;;;7.70;;
15567;SDS011;7885;42.596;23.044;2022-11-18T03:56:23;64.33;;;8.00;;
15567;SDS011;7885;42.596;23.044;2022-11-18T03:58:56;58.23;;;7.90;;
15567;SDS011;7885;42.596;23.044;2022-11-18T04:01:30;63.33;;;8.80;;
15567;SDS011;7885;42.596;23.044;2022-11-18T04:04:01;132.57;;;12.70;;
15567;SDS011;7885;42.596;23.044;2022-11-18T04:06:29;145.53;;;11.33;;
15567;SDS011;7885;42.596;23.044;2022-11-18T04:09:02;229.50;;;12.23;;
15567;SDS011;7885;42.596;23.044;2022-11-18T04:11:34;222.93;;;13.13;;
15567;SDS011;7885;42.596;23.044;2022-11-18T04:14:24;393.60;;;15.80;;
15567;SDS011;7885;42.596;23.044;2022-11-18T04:16:53;355.67;;;17.90;;
15567;SDS011;7885;42.596;23.044;2022-11-18T04:19:19;307.00;;;15.27;;
15567;SDS011;7885;42.596;23.044;2022-11-18T04:21:46;232.00;;;14.10;;
15567;SDS011;7885;42.596;23.044;2022-11-18T04:24:14;138.63;;;12.37;;
15567;SDS011;7885;42.596;23.044;2022-11-18T04:26:41;149.13;;;14.57;;
15567;SDS011;7885;42.596;23.044;2022-11-18T04:29:08;231.97;;;15.07;;
15567;SDS011;7885;42.596;23.044;2022-11-18T04:31:34;291.77;;;14.60;;
15567;SDS011;7885;42.596;23.044;2022-11-18T04:34:02;140.70;;;12.87;;
15567;SDS011;7885;42.596;23.044;2022-11-18T04:36:29;108.73;;;10.20;;
15567;SDS011;7885;42.596;23.044;2022-11-18T04:38:56;62.23;;;12.00;;
15567;SDS011;7885;42.596;23.044;2022-11-18T04:41:23;103.33;;;15.00;;
15567;SDS011;7885;42.596;23.044;2022-11-18T04:44:09;261.97;;;17.77;;
15567;SDS011;7885;42.596;23.044;2022-11-18T04:46:38;75.67;;;11.20;;
15567;SDS011;7885;42.596;23.044;2022-11-18T04:49:08;158.53;;;12.53;;
15567;SDS011;7885;42.596;23.044;2022-11-18T04:51:36;328.50;;;16.10;;
15567;SDS011;7885;42.596;23.044;2022-11-18T04:54:03;208.97;;;14.60;;
15567;SDS011;7885;42.596;23.044;2022-11-18T04:56:31;167.60;;;15.07;;
15567;SDS011;7885;42.596;23.044;2022-11-18T04:58:57;69.17;;;16.50;;
15567;SDS011;7885;42.596;23.044;2022-11-18T05:01:25;197.10;;;16.53;;
15567;SDS011;7885;42.596;23.044;2022-11-18T05:03:52;175.27;;;16.40;;
15567;SDS011;7885;42.596;23.044;2022-11-18T05:06:20;78.07;;;14.43;;
15567;SDS011;7885;42.596;23.044;2022-11-18T05:08:47;82.37;;;15.50;;
15567;SDS011;7885;42.596;23.044;2022-11-18T05:11:14;110.00;;;12.50;;
15567;SDS011;7885;42.596;23.044;2022-11-18T05:13:59;71.77;;;9.10;;
15567;SDS011;7885;42.596;23.044;2022-11-18T05:16:25;45.90;;;9.00;;
15567;SDS011;7885;42.596;23.044;2022-11-18T05:18:52;113.93;;;12.53;;
15567;SDS011;7885;42.596;23.044;2022-11-18T05:21:20;73.90;;;10.50;;
15567;SDS011;7885;42.596;23.044;2022-11-18T05:23:47;377.93;;;17.43;;
15567;SDS011;7885;42.596;23.044;2022-11-18T05:26:14;94.57;;;12.43;;
15567;SDS011;7885;42.596;23.044;2022-11-18T05:28:41;184.10;;;14.40;;
15567;SDS011;7885;42.596;23.044;2022-11-18T05:31:08;270.53;;;15.33;;
15567;SDS011;7885;42.596;23.044;2022-11-18T05:33:36;162.73;;;13.97;;
15567;SDS011;7885;42.596;23.044;2022-11-18T05:36:03;146.77;;;13.27;;
15567;SDS011;7885;42.596;23.044;2022-11-18T05:38:32;434.03;;;17.90;;
15567;SDS011;7885;42.596;23.044;2022-11-18T05:40:59;123.87;;;15.57;;
15567;SDS011;7885;42.596;23.044;2022-11-18T05:43:26;378.63;;;19.20;;
15567;SDS011;7885;42.596;23.044;2022-11-18T05:45:52;155.13;;;17.30;;
15567;SDS011;7885;42.596;23.044;2022-11-18T05:48:19;184.03;;;17.63;;
15567;SDS011;7885;42.596;23.044;2022-11-18T05:50:46;259.10;;;18.40;;
15567;SDS011;7885;42.596;23.044;2022-11-18T05:53:14;164.53;;;17.93;;
15567;SDS011;7885;42.596;23.044;2022-11-18T05:55:45;239.70;;;29.93;;
15567;SDS011;7885;42.596;23.044;2022-11-18T05:58:16;317.20;;;29.90;;
15567;SDS011;7885;42.596;23.044;2022-11-18T06:00:43;286.87;;;25.37;;
15567;SDS011;7885;42.596;23.044;2022-11-18T06:03:14;117.60;;;23.67;;
15567;SDS011;7885;42.596;23.044;2022-11-18T06:05:44;287.80;;;25.20;;
15567;SDS011;7885;42.596;23.044;2022-11-18T06:08:12;163.67;;;22.67;;
15567;SDS011;7885;42.596;23.044;2022-11-18T06:10:43;210.00;;;22.10;;
15567;SDS011;7885;42.596;23.044;2022-11-18T06:13:14;220.47;;;20.20;;
15567;SDS011;7885;42.596;23.044;2022-11-18T06:15:45;236.57;;;17.27;;
15567;SDS011;7885;42.596;23.044;2022-11-18T06:18:19;319.57;;;19.03;;
15567;SDS011;7885;42.596;23.044;2022-11-18T06:20:49;364.80;;;19.60;;
15567;SDS011;7885;42.596;23.044;2022-11-18T06:23:18;226.20;;;18.73;;
15567;SDS011;7885;42.596;23.044;2022-11-18T06:25:46;122.60;;;18.57;;
15567;SDS011;7885;42.596;23.044;2022-11-18T06:28:14;211.57;;;18.07;;
15567;SDS011;7885;42.596;23.044;2022-11-18T06:30:42;76.60;;;16.93;;
15567;SDS011;7885;42.596;23.044;2022-11-18T06:33:08;330.33;;;20.00;;
15567;SDS011;7885;42.596;23.044;2022-11-18T06:35:35;198.00;;;18.63;;
15567;SDS011;7885;42.596;23.044;2022-11-18T06:38:02;194.47;;;16.93;;
15567;SDS011;7885;42.596;23.044;2022-11-18T06:40:29;73.93;;;14.13;;
15567;SDS011;7885;42.596;23.044;2022-11-18T06:42:58;174.43;;;14.23;;
15567;SDS011;7885;42.596;23.044;2022-11-18T06:45:41;96.57;;;10.90;;
15567;SDS011;7885;42.596;23.044;2022-11-18T06:48:30;105.03;;;11.13;;
15567;SDS011;7885;42.596;23.044;2022-11-18T06:50:56;84.53;;;12.13;;
15567;SDS011;7885;42.596;23.044;2022-11-18T06:53:23;252.47;;;20.07;;
15567;SDS011;7885;42.596;23.044;2022-11-18T06:55:49;117.40;;;18.77;;
15567;SDS011;7885;42.596;23.044;2022-11-18T06:58:17;139.17;;;19.97;;
15567;SDS011;7885;42.596;23.044;2022-11-18T07:00:44;78.70;;;21.80;;
15567;SDS011;7885;42.596;23.044;2022-11-18T07:03:11;115.17;;;16.10;;
15567;SDS011;7885;42.596;23.044;2022-11-18T07:05:38;49.50;;;13.97;;
15567;SDS011;7885;42.596;23.044;2022-11-18T07:08:04;133.27;;;15.67;;
15567;SDS011;7885;42.596;23.044;2022-11-18T07:10:31;180.77;;;15.30;;
15567;SDS011;7885;42.596;23.044;2022-11-18T07:12:58;73.40;;;14.57;;
15567;SDS011;7885;42.596;23.044;2022-11-18T07:15:26;38.43;;;14.83;;
15567;SDS011;7885;42.596;23.044;2022-11-18T07:17:53;78.50;;;17.97;;
15567;SDS011;7885;42.596;23.044;2022-11-18T07:20:20;62.93;;;15.10;;
15567;SDS011;7885;42.596;23.044;2022-11-18T07:22:47;79.07;;;17.87;;
15567;SDS011;7885;42.596;23.044;2022-11-18T07:25:17;74.83;;;15.63;;
15567;SDS011;7885;42.596;23.044;2022-11-18T07:27:44;50.90;;;20.07;;
15567;SDS011;7885;42.596;23.044;2022-11-18T07:30:12;50.63;;;26.67;;
15567;SDS011;7885;42.596;23.044;2022-11-18T07:32:40;70.87;;;19.17;;
15567;SDS011;7885;42.596;23.044;2022-11-18T07:35:07;50.97;;;12.13;;
15567;SDS011;7885;42.596;23.044;2022-11-18T07:37:35;36.47;;;13.27;;
15567;SDS011;7885;42.596;23.044;2022-11-18T07:40:01;27.73;;;12.53;;
15567;SDS011;7885;42.596;23.044;2022-11-18T07:42:29;31.03;;;12.37;;
15567;SDS011;7885;42.596;23.044;2022-11-18T07:45:07;55.10;;;11.07;;
15567;SDS011;7885;42.596;23.044;2022-11-18T07:47:35;29.73;;;16.77;;
15567;SDS011;7885;42.596;23.044;2022-11-18T07:50:03;29.97;;;18.23;;
15567;SDS011;7885;42.596;23.044;2022-11-18T07:52:30;25.97;;;14.83;;
15567;SDS011;7885;42.596;23.044;2022-11-18T07:54:57;26.70;;;14.43;;
15567;SDS011;7885;42.596;23.044;2022-11-18T07:57:24;28.97;;;15.30;;
15567;SDS011;7885;42.596;23.044;2022-11-18T07:59:51;59.03;;;18.00;;
15567;SDS011;7885;42.596;23.044;2022-11-18T08:02:17;42.10;;;14.77;;
15567;SDS011;7885;42.596;23.044;2022-11-18T08:04:44;61.17;;;15.87;;
15567;SDS011;7885;42.596;23.044;2022-11-18T08:07:12;46.70;;;14.73;;
15567;SDS011;7885;42.596;23.044;2022-11-18T08:09:39;53.87;;;17.03;;
15567;SDS011;7885;42.596;23.044;2022-11-18T08:12:06;49.53;;;15.33;;
15567;SDS011;7885;42.596;23.044;2022-11-18T08:14:33;89.07;;;14.03;;
15567;SDS011;7885;42.596;23.044;2022-11-18T08:16:59;43.23;;;14.47;;
15567;SDS011;7885;42.596;23.044;2022-11-18T08:19:26;36.40;;;15.00;;
15567;SDS011;7885;42.596;23.044;2022-11-18T08:21:53;31.03;;;17.40;;
15567;SDS011;7885;42.596;23.044;2022-11-18T08:24:21;27.10;;;18.83;;
15567;SDS011;7885;42.596;23.044;2022-11-18T08:26:48;26.07;;;18.73;;
15567;SDS011;7885;42.596;23.044;2022-11-18T08:29:15;29.73;;;16.53;;
15567;SDS011;7885;42.596;23.044;2022-11-18T08:31:41;30.23;;;19.93;;
15567;SDS011;7885;42.596;23.044;2022-11-18T08:34:08;34.60;;;18.83;;
15567;SDS011;7885;42.596;23.044;2022-11-18T08:36:36;25.30;;;18.10;;
15567;SDS011;7885;42.596;23.044;2022-11-18T08:39:04;24.07;;;18.97;;
15567;SDS011;7885;42.596;23.044;2022-11-18T08:41:34;25.27;;;19.30;;
15567;SDS011;7885;42.596;23.044;2022-11-18T08:44:02;28.10;;;21.30;;
15567;SDS011;7885;42.596;23.044;2022-11-18T08:46:30;19.40;;;16.87;;
15567;SDS011;7885;42.596;23.044;2022-11-18T08:48:56;17.90;;;15.47;;
15567;SDS011;7885;42.596;23.044;2022-11-18T08:51:24;14.50;;;13.10;;
15567;SDS011;7885;42.596;23.044;2022-11-18T08:53:51;13.90;;;12.40;;
15567;SDS011;7885;42.596;23.044;2022-11-18T08:56:18;13.13;;;11.93;;
15567;SDS011;7885;42.596;23.044;2022-11-18T08:58:48;12.77;;;11.55;;
15567;SDS011;7885;42.596;23.044;2022-11-18T09:01:15;12.57;;;11.25;;
15567;SDS011;7885;42.596;23.044;2022-11-18T09:03:42;4.43;;;4.00;;
15567;SDS011;7885;42.596;23.044;2022-11-18T09:06:10;14.93;;;13.43;;
15567;SDS011;7885;42.596;23.044;2022-11-18T09:08:39;17.67;;;15.77;;
15567;SDS011;7885;42.596;23.044;2022-11-18T09:11:06;21.20;;;18.35;;
15567;SDS011;7885;42.596;23.044;2022-11-18T09:13:34;21.20;;;17.08;;
15567;SDS011;7885;42.596;23.044;2022-11-18T09:16:03;17.13;;;13.95;;
15567;SDS011;7885;42.596;23.044;2022-11-18T09:18:30;2.97;;;2.30;;
15567;SDS011;7885;42.596;23.044;2022-11-18T09:21:13;2.75;;;2.20;;
15567;SDS011;7885;42.596;23.044;2022-11-18T09:23:40;2.30;;;2.10;;
15567;SDS011;7885;42.596;23.044;2022-11-18T09:26:07;3.07;;;2.17;;
15567;SDS011;7885;42.596;23.044;2022-11-18T09:28:35;3.93;;;2.27;;
15567;SDS011;7885;42.596;23.044;2022-11-18T09:31:04;4.70;;;2.30;;
15567;SDS011;7885;42.596;23.044;2022-11-18T09:33:32;2.33;;;2.07;;
15567;SDS011;7885;42.596;23.044;2022-11-18T09:35:59;4.60;;;3.17;;
15567;SDS011;7885;42.596;23.044;2022-11-18T09:38:27;3.47;;;2.27;;
15567;SDS011;7885;42.596;23.044;2022-11-18T09:40:55;2.93;;;2.60;;
15567;SDS011;7885;42.596;23.044;2022-11-18T09:43:34;5.47;;;2.67;;
15567;SDS011;7885;42.596;23.044;2022-11-18T09:46:14;3.53;;;2.40;;
15567;SDS011;7885;42.596;23.044;2022-11-18T09:48:49;3.53;;;2.67;;
15567;SDS011;7885;42.596;23.044;2022-11-18T09:51:35;1.70;;;1.20;;
15567;SDS011;7885;42.596;23.044;2022-11-18T09:54:07;3.03;;;2.40;;
15567;SDS011;7885;42.596;23.044;2022-11-18T09:56:37;4.07;;;1.87;;
15567;SDS011;7885;42.596;23.044;2022-11-18T09:59:05;2.80;;;1.90;;
15567;SDS011;7885;42.596;23.044;2022-11-18T10:01:34;2.73;;;2.13;;
15567;SDS011;7885;42.596;23.044;2022-11-18T10:04:01;2.23;;;1.73;;
15567;SDS011;7885;42.596;23.044;2022-11-18T10:06:30;3.73;;;1.93;;
15567;SDS011;7885;42.596;23.044;2022-11-18T10:09:03;3.23;;;2.30;;
15567;SDS011;7885;42.596;23.044;2022-11-18T10:11:57;2.93;;;2.20;;
15567;SDS011;7885;42.596;23.044;2022-11-18T10:14:38;3.57;;;2.00;;
15567;SDS011;7885;42.596;23.044;2022-11-18T10:17:18;3.27;;;2.20;;
15567;SDS011;7885;42.596;23.044;2022-11-18T10:20:07;5.20;;;2.37;;
15567;SDS011;7885;42.596;23.044;2022-11-18T10:22:46;4.13;;;2.67;;
15567;SDS011;7885;42.596;23.044;2022-11-18T10:25:17;6.97;;;3.40;;
15567;SDS011;7885;42.596;23.044;2022-11-18T10:27:45;4.00;;;2.60;;
15567;SDS011;7885;42.596;23.044;2022-11-18T10:30:14;3.13;;;2.80;;
15567;SDS011;7885;42.596;23.044;2022-11-18T10:35:31;5.00;;;2.17;;
15567;SDS011;7885;42.596;23.044;2022-11-18T10:38:00;3.20;;;2.50;;
15567;SDS011;7885;42.596;23.044;2022-11-18T10:40:29;2.97;;;2.27;;
15567;SDS011;7885;42.596;23.044;2022-11-18T10:42:57;3.90;;;2.37;;
15567;SDS011;7885;42.596;23.044;2022-11-18T10:45:24;2.60;;;2.00;;
15567;SDS011;7885;42.596;23.044;2022-11-18T10:47:57;2.37;;;1.87;;
15567;SDS011;7885;42.596;23.044;2022-11-18T10:50:28;2.73;;;1.80;;
15567;SDS011;7885;42.596;23.044;2022-11-18T10:52:58;2.43;;;1.90;;
15567;SDS011;7885;42.596;23.044;2022-11-18T10:55:25;2.20;;;2.00;;
15567;SDS011;7885;42.596;23.044;2022-11-18T10:57:54;2.67;;;2.20;;
15567;SDS011;7885;42.596;23.044;2022-11-18T11:00:42;2.93;;;1.87;;
15567;SDS011;7885;42.596;23.044;2022-11-18T11:03:14;2.20;;;2.00;;
15567;SDS011;7885;42.596;23.044;2022-11-18T11:08:53;2.17;;;1.77;;
15567;SDS011;7885;42.596;23.044;2022-11-18T11:11:22;2.17;;;1.97;;
15567;SDS011;7885;42.596;23.044;2022-11-18T11:13:53;2.77;;;1.80;;
15567;SDS011;7885;42.596;23.044;2022-11-18T11:16:25;3.30;;;2.23;;
15567;SDS011;7885;42.596;23.044;2022-11-18T11:18:55;2.47;;;2.10;;
15567;SDS011;7885;42.596;23.044;2022-11-18T11:21:28;3.10;;;1.80;;
15567;SDS011;7885;42.596;23.044;2022-11-18T11:23:55;3.17;;;2.37;;
15567;SDS011;7885;42.596;23.044;2022-11-18T11:26:25;3.23;;;2.00;;
15567;SDS011;7885;42.596;23.044;2022-11-18T11:28:57;2.07;;;1.87;;
15567;SDS011;7885;42.596;23.044;2022-11-18T11:31:33;2.43;;;2.10;;
15567;SDS011;7885;42.596;23.044;2022-11-18T11:34:10;3.33;;;1.80;;
15567;SDS011;7885;42.596;23.044;2022-11-18T11:36:48;4.90;;;2.57;;
15567;SDS011;7885;42.596;23.044;2022-11-18T11:39:27;2.67;;;1.80;;
15567;SDS011;7885;42.596;23.044;2022-11-18T11:42:08;3.63;;;2.20;;
15567;SDS011;7885;42.596;23.044;2022-11-18T11:44:49;2.67;;;1.80;;
15567;SDS011;7885;42.596;23.044;2022-11-18T11:47:26;2.37;;;1.87;;
15567;SDS011;7885;42.596;23.044;2022-11-18T11:50:17;3.23;;;1.97;;
15567;SDS011;7885;42.596;23.044;2022-11-18T11:52:53;2.50;;;2.00;;
15567;SDS011;7885;42.596;23.044;2022-11-18T11:55:33;1.93;;;1.60;;
15567;SDS011;7885;42.596;23.044;2022-11-18T11:58:10;4.03;;;2.60;;
15567;SDS011;7885;42.596;23.044;2022-11-18T12:00:51;3.10;;;1.90;;
15567;SDS011;7885;42.596;23.044;2022-11-18T12:03:32;3.53;;;2.50;;
15567;SDS011;7885;42.596;23.044;2022-11-18T12:06:09;2.47;;;1.90;;
15567;SDS011;7885;42.596;23.044;2022-11-18T12:08:38;4.33;;;1.87;;
15567;SDS011;7885;42.596;23.044;2022-11-18T12:11:16;3.23;;;1.93;;
15567;SDS011;7885;42.596;23.044;2022-11-18T12:13:55;2.10;;;1.90;;
15567;SDS011;7885;42.596;23.044;2022-11-18T12:16:29;2.83;;;1.90;;
15567;SDS011;7885;42.596;23.044;2022-11-18T12:19:02;4.73;;;1.90;;
15567;SDS011;7885;42.596;23.044;2022-11-18T12:21:55;2.33;;;2.00;;
15567;SDS011;7885;42.596;23.044;2022-11-18T12:24:38;2.17;;;1.70;;
15567;SDS011;7885;42.596;23.044;2022-11-18T12:33:26;2.33;;;1.90;;
15567;SDS011;7885;42.596;23.044;2022-11-18T12:35:52;1.97;;;1.77;;
15567;SDS011;7885;42.596;23.044;2022-11-18T12:38:26;3.30;;;2.07;;
15567;SDS011;7885;42.596;23.044;2022-11-18T12:40:56;4.03;;;1.60;;
15567;SDS011;7885;42.596;23.044;2022-11-18T12:46:46;3.50;;;1.70;;
15567;SDS011;7885;42.596;23.044;2022-11-18T12:52:45;1.70;;;1.60;;
15567;SDS011;7885;42.596;23.044;2022-11-18T12:55:18;2.57;;;1.50;;
15567;SDS011;7885;42.596;23.044;2022-11-18T12:57:49;1.70;;;1.60;;
15567;SDS011;7885;42.596;23.044;2022-11-18T13:00:17;1.90;;;1.70;;
15567;SDS011;7885;42.596;23.044;2022-11-18T13:02:54;1.70;;;1.40;;
15567;SDS011;7885;42.596;23.044;2022-11-18T13:05:23;1.73;;;1.63;;
15567;SDS011;7885;42.596;23.044;2022-11-18T13:07:52;1.43;;;1.33;;
15567;SDS011;7885;42.596;23.044;2022-11-18T13:10:43;3.60;;;1.57;;
15567;SDS011;7885;42.596;23.044;2022-11-18T13:13:25;2.30;;;1.37;;
15567;SDS011;7885;42.596;23.044;2022-11-18T13:15:56;3.40;;;1.50;;
15567;SDS011;7885;42.596;23.044;2022-11-18T13:18:48;2.23;;;1.30;;
15567;SDS011;7885;42.596;23.044;2022-11-18T13:21:20;2.80;;;1.60;;
15567;SDS011;7885;42.596;23.044;2022-11-18T13:24:06;2.83;;;1.70;;
15567;SDS011;7885;42.596;23.044;2022-11-18T13:26:37;2.27;;;1.70;;
15567;SDS011;7885;42.596;23.044;2022-11-18T13:29:12;1.90;;;1.57;;
15567;SDS011;7885;42.596;23.044;2022-11-18T13:31:49;3.20;;;1.87;;
15567;SDS011;7885;42.596;23.044;2022-11-18T13:34:24;2.23;;;1.63;;
15567;SDS011;7885;42.596;23.044;2022-11-18T13:36:53;6.67;;;1.70;;
15567;SDS011;7885;42.596;23.044;2022-11-18T13:39:22;2.73;;;1.77;;
15567;SDS011;7885;42.596;23.044;2022-11-18T13:41:57;2.50;;;1.53;;
15567;SDS011;7885;42.596;23.044;2022-11-18T13:44:28;3.63;;;1.70;;
15567;SDS011;7885;42.596;23.044;2022-11-18T13:46:58;2.40;;;1.40;;
15567;SDS011;7885;42.596;23.044;2022-11-18T13:49:35;3.23;;;1.53;;
15567;SDS011;7885;42.596;23.044;2022-11-18T13:52:16;2.83;;;1.60;;
15567;SDS011;7885;42.596;23.044;2022-11-18T13:54:45;2.50;;;1.53;;
15567;SDS011;7885;42.596;23.044;2022-11-18T13:57:15;1.40;;;1.30;;
15567;SDS011;7885;42.596;23.044;2022-11-18T13:59:46;1.33;;;1.13;;
15567;SDS011;7885;42.596;23.044;2022-11-18T14:02:14;1.70;;;1.43;;
15567;SDS011;7885;42.596;23.044;2022-11-18T14:04:50;1.47;;;1.10;;
15567;SDS011;7885;42.596;23.044;2022-11-18T14:07:26;1.90;;;1.37;;
15567;SDS011;7885;42.596;23.044;2022-11-18T14:09:56;2.27;;;1.50;;
15567;SDS011;7885;42.596;23.044;2022-11-18T14:12:25;1.73;;;1.37;;
15567;SDS011;7885;42.596;23.044;2022-11-18T14:17:49;2.73;;;1.67;;
15567;SDS011;7885;42.596;23.044;2022-11-18T14:20:18;2.67;;;1.93;;
15567;SDS011;7885;42.596;23.044;2022-11-18T14:22:45;3.00;;;1.50;;
15567;SDS011;7885;42.596;23.044;2022-11-18T14:25:16;2.10;;;1.83;;
15567;SDS011;7885;42.596;23.044;2022-11-18T14:27:46;5.60;;;2.00;;
15567;SDS011;7885;42.596;23.044;2022-11-18T14:30:24;4.30;;;2.30;;
15567;SDS011;7885;42.596;23.044;2022-11-18T14:35:49;2.53;;;2.00;;
15567;SDS011;7885;42.596;23.044;2022-11-18T14:38:20;2.07;;;1.87;;
15567;SDS011;7885;42.596;23.044;2022-11-18T14:40:53;3.10;;;1.53;;
15567;SDS011;7885;42.596;23.044;2022-11-18T14:43:21;2.03;;;1.60;;
15567;SDS011;7885;42.596;23.044;2022-11-18T14:45:50;1.83;;;1.67;;
15567;SDS011;7885;42.596;23.044;2022-11-18T14:48:19;2.03;;;1.83;;
15567;SDS011;7885;42.596;23.044;2022-11-18T14:50:48;3.87;;;1.70;;
15567;SDS011;7885;42.596;23.044;2022-11-18T14:53:16;3.67;;;2.50;;
15567;SDS011;7885;42.596;23.044;2022-11-18T14:55:43;4.60;;;2.70;;
15567;SDS011;7885;42.596;23.044;2022-11-18T14:58:13;4.07;;;2.90;;
15567;SDS011;7885;42.596;23.044;2022-11-18T15:00:40;5.77;;;2.87;;
15567;SDS011;7885;42.596;23.044;2022-11-18T15:03:09;3.60;;;2.60;;
15567;SDS011;7885;42.596;23.044;2022-11-18T15:05:36;4.27;;;1.77;;
15567;SDS011;7885;42.596;23.044;2022-11-18T15:08:03;3.40;;;2.23;;
15567;SDS011;7885;42.596;23.044;2022-11-18T15:10:30;3.83;;;2.83;;
15567;SDS011;7885;42.596;23.044;2022-11-18T15:12:57;2.90;;;2.17;;
15567;SDS011;7885;42.596;23.044;2022-11-18T15:15:24;2.47;;;2.10;;
15567;SDS011;7885;42.596;23.044;2022-11-18T15:17:51;2.50;;;1.70;;